»·PEaware :: N3891R KAVX-KSNA

N3891R :: KAVX-KSNA

FLIGHT INFORMATION

Flight Status: Arrived
Operator: Privately registered:
United States
More flights under this callsign
Pilot: Markus B. (22479)
Aircraft: CESSNA 172 SKYHAWK
(C172)
More flights by this aircraft type
Origin: KAVX Catalina
United States
Destination: KSNA John Wayne-Orange Co
United States
More flights between these airports :: More routes between these airports
Route: SXC SLI
File this flight plan on PilotEdge
Remarks: I-7
Altitude:
(Current/Filed)
4,000ft
Speed:
(Current/Filed)
120kts
Departed: 21-Jan-19 06:23 PM
Arrived: 21-Jan-19 07:01 PM
Distance/Time
Traveled:
32nm/0:38
Distance/Time
To Go:
Arrived

Flight Plot

Page will automatically refresh every two minutes.


Map Options




Map Legend


Flown Route
Filed Route
Departure Airport
Arrival Airport
Navaid (VOR, NDB)
Fix

Horizontal Profiles

Position Reports

Time Latitude Longitude Heading Altitude Ground
Speed
21-Jan-19 18:09 33.402362 -118.419508 63 1606ft 0kts
21-Jan-19 18:10 33.402362 -118.419508 63 1606ft 0kts
21-Jan-19 18:11 33.402362 -118.419508 63 1606ft 0kts
21-Jan-19 18:12 33.402445 -118.419298 64 1606ft 0kts
21-Jan-19 18:13 33.406315 -118.412823 56 1606ft 28kts
21-Jan-19 18:14 33.407243 -118.411294 335 1606ft 0kts
21-Jan-19 18:15 33.407243 -118.411294 335 1606ft 0kts
21-Jan-19 18:17 33.407243 -118.411294 335 1606ft 0kts
21-Jan-19 18:17 33.407243 -118.411294 335 1606ft 0kts
21-Jan-19 18:18 33.407243 -118.411294 335 1606ft 0kts
21-Jan-19 18:19 33.407243 -118.411294 335 1606ft 0kts
21-Jan-19 18:20 33.407243 -118.411294 335 1606ft 0kts
21-Jan-19 18:21 33.407292 -118.411844 229 1606ft 21kts
21-Jan-19 18:22 33.396579 -118.430037 224 2216ft 74kts
21-Jan-19 18:23 33.374962 -118.434139 159 2858ft 100kts
21-Jan-19 18:24 33.383427 -118.406954 36 3653ft 99kts
21-Jan-19 18:25 33.407175 -118.384788 43 3888ft 127kts
21-Jan-19 18:26 33.435155 -118.357414 34 3902ft 130kts
21-Jan-19 18:27 33.465038 -118.331861 36 3885ft 132kts
21-Jan-19 18:28 33.494877 -118.305957 36 3886ft 132kts
21-Jan-19 18:29 33.524584 -118.280139 36 3886ft 132kts
21-Jan-19 18:30 33.554238 -118.254343 36 3920ft 130kts
21-Jan-19 18:31 33.583766 -118.228635 36 3920ft 131kts
21-Jan-19 18:32 33.613534 -118.202696 36 3920ft 132kts
21-Jan-19 18:33 33.643249 -118.176779 36 3920ft 132kts
21-Jan-19 18:34 33.673011 -118.150800 36 3920ft 132kts
21-Jan-19 18:35 33.702803 -118.124787 36 3920ft 132kts
21-Jan-19 18:36 33.732162 -118.099087 36 3920ft 132kts
21-Jan-19 18:37 33.762469 -118.075972 31 3920ft 132kts
21-Jan-19 18:38 33.793094 -118.053278 31 3920ft 132kts
21-Jan-19 18:39 33.823120 -118.031033 31 3920ft 132kts
21-Jan-19 18:40 33.853227 -118.008718 31 3920ft 132kts
21-Jan-19 18:41 33.883702 -117.986103 31 3920ft 132kts
21-Jan-19 18:42 33.914911 -117.962948 31 3920ft 132kts
21-Jan-19 18:43 33.922017 -117.923080 92 3920ft 132kts
21-Jan-19 18:44 33.920762 -117.879432 92 3920ft 132kts
21-Jan-19 18:45 33.919454 -117.836217 92 3919ft 126kts
21-Jan-19 18:46 33.918169 -117.793972 92 3920ft 125kts
21-Jan-19 18:47 33.933198 -117.761768 24 3921ft 127kts
21-Jan-19 18:48 33.956511 -117.735057 110 3917ft 131kts
21-Jan-19 18:49 33.923002 -117.726639 182 3920ft 132kts
21-Jan-19 18:50 33.886222 -117.728527 182 3920ft 132kts
21-Jan-19 18:51 33.853764 -117.745452 230 3920ft 132kts
21-Jan-19 18:52 33.841906 -117.775237 154 3918ft 131kts
21-Jan-19 18:53 33.808158 -117.773211 203 3918ft 131kts
21-Jan-19 18:54 33.782698 -117.800976 207 3665ft 90kts
21-Jan-19 18:55 33.763744 -117.812834 205 2334ft 92kts
21-Jan-19 18:57 33.745612 -117.824082 188 1365ft 47kts
21-Jan-19 18:58 33.729255 -117.834925 209 1085ft 79kts
21-Jan-19 18:59 33.709481 -117.847053 206 718ft 80kts
21-Jan-19 19:00 33.690156 -117.859677 208 264ft 73kts
21-Jan-19 19:01 33.676637 -117.868392 195 60ft 25kts
21-Jan-19 19:02 33.671255 -117.871648 206 60ft 17kts
21-Jan-19 19:03 33.670107 -117.873344 296 60ft 9kts
21-Jan-19 19:04 33.668527 -117.874782 187 60ft 9kts
21-Jan-19 19:05 33.668216 -117.874925 210 60ft 0kts
21-Jan-19 19:06 33.668845 -117.874591 23 60ft 18kts
21-Jan-19 19:07 33.673431 -117.872613 245 60ft 9kts

Navigation Log

Ident Type
Flight plan parsing failed, navigation log unavailable